createdAt,value
2023-03-13T00:01:36.554Z,52.17
2023-03-13T00:04:03.900Z,51.96
2023-03-13T00:06:34.401Z,52.47
2023-03-13T00:09:02.756Z,52.28
2023-03-13T00:11:29.996Z,52.07
2023-03-13T00:14:05.152Z,52.27
2023-03-13T00:16:37.852Z,51.86
2023-03-13T00:19:06.404Z,52.32
2023-03-13T00:21:41.535Z,52.69
2023-03-13T00:24:11.571Z,52.26
2023-03-13T00:26:38.723Z,52.80
2023-03-13T00:29:08.311Z,52.90
2023-03-13T00:31:38.537Z,53.29
2023-03-13T00:34:06.012Z,53.11
2023-03-13T00:36:37.030Z,53.23
2023-03-13T00:39:07.958Z,53.77
2023-03-13T00:41:37.403Z,53.78
2023-03-13T00:44:08.889Z,54.51
2023-03-13T00:46:39.723Z,54.56
2023-03-13T00:49:07.257Z,55.10
2023-03-13T00:51:40.246Z,56.25
2023-03-13T00:54:07.501Z,55.75
2023-03-13T00:56:39.805Z,55.75
2023-03-13T01:02:30.077Z,57.65
2023-03-13T01:04:59.795Z,56.43
2023-03-13T01:07:27.660Z,56.84
2023-03-13T01:09:55.050Z,57.87
2023-03-13T01:12:22.471Z,57.43
2023-03-13T01:14:53.500Z,58.04
2023-03-13T01:17:22.637Z,57.96
2023-03-13T01:19:56.539Z,58.67
2023-03-13T01:22:27.854Z,59.05
2023-03-13T01:24:55.168Z,58.37
2023-03-13T01:27:22.541Z,58.87
2023-03-13T01:29:50.051Z,58.19
2023-03-13T01:32:17.289Z,59.01
2023-03-13T01:34:44.479Z,58.25
2023-03-13T01:37:11.684Z,58.45
2023-03-13T01:39:39.483Z,58.30
2023-03-13T01:42:07.292Z,58.93
2023-03-13T01:45:30.121Z,59.07
2023-03-13T01:47:57.508Z,58.27
2023-03-13T01:50:40.758Z,59.64
2023-03-13T01:53:20.014Z,59.27
2023-03-13T01:55:47.750Z,58.47
2023-03-13T01:58:15.291Z,58.89
2023-03-13T02:00:55.056Z,60.13
2023-03-13T02:03:35.721Z,60.91
2023-03-13T02:06:14.904Z,59.52
2023-03-13T02:08:57.854Z,60.50
2023-03-13T02:12:00.062Z,61.30
2023-03-13T02:14:33.064Z,61.01
2023-03-13T02:17:08.014Z,60.68
2023-03-13T02:19:46.152Z,61.22
2023-03-13T02:22:59.992Z,61.57
2023-03-13T02:25:48.900Z,60.49
2023-03-13T02:28:35.351Z,60.79
2023-03-13T02:31:10.910Z,59.93
2023-03-13T02:33:47.306Z,61.57
2023-03-13T02:36:22.619Z,60.73
2023-03-13T02:38:59.862Z,60.76
2023-03-13T02:41:33.101Z,60.67
2023-03-13T02:44:05.909Z,59.74
2023-03-13T02:46:52.664Z,60.99
2023-03-13T02:49:52.492Z,60.67
2023-03-13T02:52:29.933Z,60.99
2023-03-13T02:55:05.388Z,60.94
2023-03-13T02:57:39.119Z,60.58
2023-03-13T03:00:15.601Z,60.28
2023-03-13T03:02:43.106Z,60.79
2023-03-13T03:05:11.161Z,60.00
2023-03-13T03:07:38.834Z,60.14
2023-03-13T03:10:08.293Z,60.34
2023-03-13T03:12:36.211Z,60.11
2023-03-13T03:15:05.147Z,60.84
2023-03-13T03:17:33.904Z,60.56
2023-03-13T03:20:01.075Z,60.28
2023-03-13T03:22:31.222Z,60.38
2023-03-13T03:24:58.464Z,60.22
2023-03-13T03:27:25.695Z,60.45
2023-03-13T03:29:54.614Z,61.04
2023-03-13T03:32:22.252Z,59.92
2023-03-13T03:34:50.447Z,59.89
2023-03-13T03:37:17.638Z,59.74
2023-03-13T03:39:44.930Z,60.20
2023-03-13T03:42:12.143Z,59.54
2023-03-13T03:44:39.270Z,59.92
2023-03-13T03:47:06.636Z,59.32
2023-03-13T03:49:38.250Z,59.33
2023-03-13T03:52:06.402Z,59.00
2023-03-13T03:54:37.723Z,58.86
2023-03-13T03:57:05.074Z,58.72
2023-03-13T03:59:32.842Z,58.78
2023-03-13T04:02:08.893Z,58.40
2023-03-13T04:04:37.122Z,58.91
2023-03-13T04:07:11.011Z,58.68
2023-03-13T04:09:39.833Z,59.08
2023-03-13T04:12:09.277Z,58.88
2023-03-13T04:14:41.605Z,58.84
2023-03-13T04:17:11.100Z,58.83
2023-03-13T04:19:38.776Z,59.01
2023-03-13T04:22:06.292Z,58.72
2023-03-13T04:24:33.946Z,58.48
2023-03-13T04:27:02.782Z,58.67
2023-03-13T04:29:31.059Z,58.41
2023-03-13T04:32:33.663Z,58.13
2023-03-13T04:35:19.525Z,58.46
2023-03-13T04:38:02.970Z,58.19
2023-03-13T04:40:52.948Z,57.95
2023-03-13T04:43:42.812Z,57.99
2023-03-13T04:46:42.248Z,57.78
2023-03-13T04:49:28.180Z,57.96
2023-03-13T04:52:11.530Z,57.85
2023-03-13T04:55:11.437Z,57.80
2023-03-13T04:58:02.139Z,57.35
2023-03-13T05:00:35.512Z,56.98
2023-03-13T05:03:31.218Z,57.00
2023-03-13T05:06:24.203Z,56.89
2023-03-13T05:09:32.005Z,56.83
2023-03-13T05:12:32.451Z,56.61
2023-03-13T05:15:12.535Z,56.56
2023-03-13T05:18:08.028Z,56.66
2023-03-13T05:20:51.434Z,56.70
2023-03-13T05:23:30.969Z,56.58
2023-03-13T05:26:25.932Z,56.65
2023-03-13T05:29:22.377Z,56.27
2023-03-13T05:32:13.080Z,56.55
2023-03-13T05:35:11.203Z,56.41
2023-03-13T05:41:05.231Z,56.39
2023-03-13T05:47:18.608Z,56.17
2023-03-13T05:50:14.901Z,56.12
2023-03-13T05:53:37.601Z,56.47
2023-03-13T05:56:31.409Z,56.20
2023-03-13T05:59:11.767Z,56.07
2023-03-13T06:01:59.421Z,56.08
2023-03-13T06:04:35.792Z,55.76
2023-03-13T06:07:06.247Z,55.82
2023-03-13T06:09:33.553Z,55.78
2023-03-13T06:12:03.791Z,55.63
2023-03-13T06:14:42.018Z,55.52
2023-03-13T06:17:18.360Z,55.40
2023-03-13T06:19:52.797Z,55.25
2023-03-13T06:22:32.242Z,55.37
2023-03-13T06:25:08.604Z,55.11
2023-03-13T06:27:40.613Z,55.46
2023-03-13T06:30:14.177Z,55.23
2023-03-13T06:32:50.632Z,55.05
2023-03-13T06:35:19.648Z,54.94
2023-03-13T06:37:57.129Z,55.96
2023-03-13T06:40:25.889Z,55.25
2023-03-13T06:45:53.094Z,55.46
2023-03-13T06:48:23.393Z,55.14
2023-03-13T06:50:50.758Z,54.88
2023-03-13T06:53:20.567Z,54.87
2023-03-13T06:55:49.372Z,54.99
2023-03-13T06:58:31.120Z,54.92
2023-03-13T07:01:09.183Z,54.68
2023-03-13T07:03:45.233Z,54.41
2023-03-13T07:06:13.032Z,54.49
2023-03-13T07:08:40.232Z,54.36
2023-03-13T07:11:12.970Z,54.08
2023-03-13T07:13:42.652Z,53.69
2023-03-13T07:16:12.848Z,53.71
2023-03-13T07:18:44.934Z,53.95
2023-03-13T07:21:13.150Z,53.84
2023-03-13T07:23:43.305Z,53.43
2023-03-13T07:26:15.768Z,52.86
2023-03-13T07:28:45.856Z,52.93
2023-03-13T07:31:24.136Z,52.52
2023-03-13T07:33:56.783Z,52.34
2023-03-13T07:36:24.348Z,51.93
2023-03-13T07:38:59.538Z,52.78
2023-03-13T07:41:29.751Z,52.24
2023-03-13T07:43:56.894Z,52.88
2023-03-13T07:46:25.759Z,52.29
2023-03-13T07:48:55.397Z,53.05
2023-03-13T07:51:40.769Z,52.53
2023-03-13T07:54:10.535Z,52.97
2023-03-13T07:56:37.732Z,52.60
2023-03-13T07:59:05.356Z,52.39
2023-03-13T08:01:35.000Z,51.70
2023-03-13T08:04:02.492Z,51.70
2023-03-13T08:06:33.960Z,51.66
2023-03-13T08:09:03.921Z,51.30
2023-03-13T08:11:31.022Z,51.18
2023-03-13T08:13:59.058Z,51.02
2023-03-13T08:16:35.069Z,50.52
2023-03-13T08:19:06.333Z,50.95
2023-03-13T08:21:38.014Z,50.26
2023-03-13T08:24:08.144Z,50.22
2023-03-13T08:26:38.272Z,49.98
2023-03-13T08:29:08.507Z,49.34
2023-03-13T08:31:42.476Z,49.09
2023-03-13T08:34:13.240Z,48.50
2023-03-13T08:36:43.904Z,48.74
2023-03-13T08:39:17.378Z,47.82
2023-03-13T08:41:44.757Z,48.20
2023-03-13T08:44:19.314Z,48.29
2023-03-13T08:46:52.590Z,48.16
2023-03-13T08:49:20.049Z,48.87
2023-03-13T08:51:47.567Z,47.46
2023-03-13T08:54:14.813Z,47.38
2023-03-13T08:56:43.782Z,47.27
2023-03-13T08:59:11.561Z,46.13
2023-03-13T09:01:41.071Z,45.98
2023-03-13T09:04:11.559Z,45.08
2023-03-13T09:06:41.628Z,44.46
2023-03-13T09:09:09.942Z,44.43
2023-03-13T09:11:39.548Z,44.45
2023-03-13T09:14:07.792Z,45.43
2023-03-13T09:16:36.267Z,45.06
2023-03-13T09:19:03.709Z,44.86
2023-03-13T09:21:35.892Z,46.56
2023-03-13T09:24:03.278Z,46.41
2023-03-13T09:26:31.218Z,46.66
2023-03-13T09:28:58.875Z,46.08
2023-03-13T09:31:29.118Z,45.61
2023-03-13T09:33:56.444Z,45.46
2023-03-13T09:36:25.234Z,44.27
2023-03-13T09:38:58.140Z,43.71
2023-03-13T09:41:40.554Z,45.08
2023-03-13T09:44:15.241Z,45.36
2023-03-13T09:47:10.173Z,45.04
2023-03-13T09:49:46.379Z,44.47
2023-03-13T09:52:23.684Z,44.20
2023-03-13T09:55:20.542Z,44.56
2023-03-13T09:58:16.267Z,44.75
2023-03-13T10:00:58.677Z,45.29
2023-03-13T10:03:30.019Z,44.79
2023-03-13T10:06:01.363Z,43.99
2023-03-13T10:08:36.750Z,45.06
2023-03-13T10:12:19.796Z,44.99
2023-03-13T10:15:18.089Z,44.59
2023-03-13T10:17:47.995Z,45.31
2023-03-13T10:20:23.038Z,45.69
2023-03-13T10:23:07.948Z,45.10
2023-03-13T10:25:45.854Z,45.07
2023-03-13T10:28:16.405Z,45.09
2023-03-13T10:30:59.503Z,45.27
2023-03-13T10:33:51.731Z,44.31
2023-03-13T10:36:24.700Z,44.67
2023-03-13T10:39:16.826Z,44.08
2023-03-13T10:41:44.134Z,44.53
2023-03-13T10:44:20.148Z,43.85
2023-03-13T10:46:49.605Z,43.46
2023-03-13T10:49:28.816Z,43.99
2023-03-13T10:52:10.849Z,43.39
2023-03-13T10:54:52.888Z,42.82
2023-03-13T10:57:26.146Z,43.72
2023-03-13T10:59:54.577Z,43.72
2023-03-13T11:02:27.372Z,43.40
2023-03-13T11:04:55.583Z,43.03
2023-03-13T11:07:44.485Z,42.65
2023-03-13T11:10:25.376Z,42.05
2023-03-13T11:12:55.194Z,41.72
2023-03-13T11:15:35.757Z,42.82
2023-03-13T11:18:21.134Z,41.97
2023-03-13T11:20:49.524Z,41.18
2023-03-13T11:23:29.591Z,41.77
2023-03-13T11:26:05.920Z,41.52
2023-03-13T11:28:57.970Z,41.25
2023-03-13T11:31:37.189Z,40.83
2023-03-13T11:34:23.919Z,40.34
2023-03-13T11:37:12.839Z,41.03
2023-03-13T11:40:22.972Z,40.51
2023-03-13T11:43:17.844Z,40.79
2023-03-13T11:46:34.394Z,40.70
2023-03-13T11:49:28.819Z,40.48
2023-03-13T11:52:39.411Z,41.16
2023-03-13T11:55:39.008Z,41.44
2023-03-13T11:58:40.073Z,40.85
2023-03-13T12:01:41.316Z,40.08
2023-03-13T12:04:23.081Z,39.88
2023-03-13T12:07:21.561Z,39.58
2023-03-13T12:10:41.507Z,39.41
2023-03-13T12:13:38.207Z,38.14
2023-03-13T12:16:43.938Z,38.54
2023-03-13T12:20:08.950Z,37.88
2023-03-13T12:23:03.764Z,39.83
2023-03-13T12:26:00.627Z,39.60
2023-03-13T12:28:36.535Z,38.63
2023-03-13T12:31:27.995Z,37.19
2023-03-13T12:34:16.862Z,37.97
2023-03-13T12:37:03.401Z,37.52
2023-03-13T12:39:40.331Z,38.34
2023-03-13T12:42:43.942Z,38.16
2023-03-13T12:45:31.519Z,37.77
2023-03-13T12:48:23.457Z,38.55
2023-03-13T12:54:32.247Z,38.90
2023-03-13T12:58:14.053Z,39.98
2023-03-13T13:00:50.214Z,40.36
2023-03-13T13:03:34.660Z,40.71
2023-03-13T13:09:14.129Z,43.05
2023-03-13T13:11:45.933Z,42.23
2023-03-13T13:14:19.641Z,40.69
2023-03-13T13:17:16.519Z,42.27
2023-03-13T13:19:46.219Z,41.76
2023-03-13T13:22:39.403Z,41.50
2023-03-13T13:25:35.746Z,41.04
2023-03-13T13:28:30.888Z,41.07
2023-03-13T13:31:43.194Z,41.15
2023-03-13T13:34:31.364Z,42.50
2023-03-13T13:37:04.412Z,42.71
2023-03-13T13:39:52.884Z,41.55
2023-03-13T13:42:45.098Z,41.90
2023-03-13T13:45:22.287Z,42.17
2023-03-13T13:48:35.918Z,43.77
2023-03-13T13:51:11.349Z,42.84
2023-03-13T13:53:56.055Z,41.95
2023-03-13T13:56:32.157Z,41.49
2023-03-13T13:59:13.576Z,41.61
2023-03-13T14:01:44.329Z,41.02
2023-03-13T14:04:33.085Z,40.62
2023-03-13T14:07:03.930Z,42.15
2023-03-13T14:09:31.015Z,42.52
2023-03-13T14:12:03.876Z,42.45
2023-03-13T14:14:31.066Z,42.98
2023-03-13T14:16:58.361Z,43.35
2023-03-13T14:19:31.306Z,42.23
2023-03-13T14:22:04.424Z,42.09
2023-03-13T14:24:32.021Z,42.30
2023-03-13T14:27:04.290Z,44.00
2023-03-13T14:29:31.526Z,43.21
2023-03-13T14:32:02.552Z,44.43
2023-03-13T14:34:32.734Z,45.61
2023-03-13T14:37:17.317Z,44.95
2023-03-13T14:39:49.293Z,45.44
2023-03-13T14:42:22.991Z,45.80
2023-03-13T14:44:50.695Z,45.32
2023-03-13T14:47:36.969Z,44.82
2023-03-13T14:50:10.712Z,44.90
2023-03-13T14:52:40.044Z,44.47
2023-03-13T14:55:24.687Z,45.37
2023-03-13T14:57:56.972Z,44.96
2023-03-13T15:00:43.686Z,45.92
2023-03-13T15:03:17.586Z,45.22
2023-03-13T15:05:47.957Z,45.59
2023-03-13T15:08:25.082Z,46.45
2023-03-13T15:10:52.269Z,46.19
2023-03-13T15:13:37.416Z,46.37
2023-03-13T15:16:15.733Z,46.48
2023-03-13T15:18:43.427Z,45.97
2023-03-13T15:21:13.470Z,47.49
2023-03-13T15:23:42.670Z,47.63
2023-03-13T15:26:13.006Z,46.91
2023-03-13T15:28:43.232Z,47.11
2023-03-13T15:31:18.989Z,47.72
2023-03-13T15:33:46.465Z,48.21
2023-03-13T15:36:16.436Z,48.19
2023-03-13T15:38:43.717Z,49.04
2023-03-13T15:41:14.013Z,47.78
2023-03-13T15:43:46.284Z,47.67
2023-03-13T15:46:28.803Z,47.44
2023-03-13T15:48:58.749Z,48.16
2023-03-13T15:51:28.288Z,49.14
2023-03-13T15:53:55.447Z,48.96
2023-03-13T15:56:23.497Z,50.69
2023-03-13T15:58:53.984Z,49.86
2023-03-13T16:01:23.511Z,48.25
2023-03-13T16:04:00.816Z,48.28
2023-03-13T16:06:36.606Z,50.63
2023-03-13T16:09:11.104Z,49.41
2023-03-13T16:12:25.997Z,50.35
2023-03-13T16:14:58.015Z,49.70
2023-03-13T16:17:33.100Z,49.70
2023-03-13T16:20:00.220Z,50.50
2023-03-13T16:22:35.467Z,49.08
2023-03-13T16:25:02.513Z,49.67
2023-03-13T16:27:34.307Z,49.44
2023-03-13T16:30:07.239Z,48.34
2023-03-13T16:32:34.675Z,49.21
2023-03-13T16:35:02.443Z,48.89
2023-03-13T16:37:36.858Z,49.71
2023-03-13T16:40:32.814Z,51.24
2023-03-13T16:43:01.122Z,51.08
2023-03-13T16:45:30.747Z,49.55
2023-03-13T16:48:03.639Z,49.78
2023-03-13T16:50:39.948Z,50.74
2023-03-13T16:53:09.225Z,50.29
2023-03-13T16:55:42.792Z,50.04
2023-03-13T16:58:12.264Z,50.30
2023-03-13T17:00:41.839Z,51.18
2023-03-13T17:03:11.866Z,50.47
2023-03-13T17:05:48.367Z,50.96
2023-03-13T17:08:15.628Z,50.63
2023-03-13T17:10:43.279Z,49.38
2023-03-13T17:13:10.842Z,50.16
2023-03-13T17:15:39.344Z,51.43
2023-03-13T17:18:10.565Z,50.59
2023-03-13T17:20:42.886Z,51.15
2023-03-13T17:23:19.770Z,50.65
2023-03-13T17:25:56.352Z,49.67
2023-03-13T17:28:30.292Z,50.30
2023-03-13T17:31:00.592Z,49.56
2023-03-13T17:33:33.719Z,49.69
2023-03-13T17:36:22.519Z,49.48
2023-03-13T17:38:57.600Z,49.38
2023-03-13T17:41:39.596Z,50.45
2023-03-13T17:44:11.434Z,50.71
2023-03-13T17:46:42.539Z,50.00
2023-03-13T17:49:17.194Z,50.28
2023-03-13T17:51:49.409Z,50.96
2023-03-13T17:54:16.726Z,51.68
2023-03-13T17:56:44.510Z,50.70
2023-03-13T17:59:19.431Z,49.86
2023-03-13T18:01:47.114Z,52.02
2023-03-13T18:04:19.289Z,51.75
2023-03-13T18:06:54.858Z,50.96
2023-03-13T18:09:36.120Z,51.84
2023-03-13T18:12:12.176Z,52.02
2023-03-13T18:14:49.943Z,51.42
2023-03-13T18:17:32.890Z,54.32
2023-03-13T18:20:02.702Z,51.78
2023-03-13T18:22:31.228Z,51.32
2023-03-13T18:25:09.621Z,52.32
2023-03-13T18:27:37.271Z,50.84
2023-03-13T18:30:07.425Z,50.75
2023-03-13T18:32:34.756Z,50.38
2023-03-13T18:35:02.016Z,50.75
2023-03-13T18:37:33.429Z,52.03
2023-03-13T18:40:11.790Z,51.92
2023-03-13T18:42:42.441Z,52.93
2023-03-13T18:45:26.312Z,52.65
2023-03-13T18:47:53.962Z,53.79
2023-03-13T18:51:11.877Z,53.20
2023-03-13T18:53:42.248Z,53.68
2023-03-13T18:56:32.719Z,52.62
2023-03-13T18:59:16.020Z,53.88
2023-03-13T19:01:52.728Z,53.52
2023-03-13T19:04:26.046Z,54.41
2023-03-13T19:06:56.236Z,54.50
2023-03-13T19:09:43.640Z,55.13
2023-03-13T19:12:12.130Z,54.73
2023-03-13T19:14:40.661Z,54.37
2023-03-13T19:17:27.041Z,54.52
2023-03-13T19:20:05.632Z,54.14
2023-03-13T19:22:41.712Z,54.07
2023-03-13T19:25:22.563Z,53.88
2023-03-13T19:27:53.301Z,53.57
2023-03-13T19:30:28.253Z,55.59
2023-03-13T19:33:02.723Z,55.07
2023-03-13T19:35:34.260Z,55.02
2023-03-13T19:38:04.658Z,56.99
2023-03-13T19:40:34.940Z,55.88
2023-03-13T19:43:05.592Z,55.51
2023-03-13T19:45:39.008Z,56.31
2023-03-13T19:48:08.159Z,56.25
2023-03-13T19:50:40.128Z,56.05
2023-03-13T19:53:20.302Z,55.45
2023-03-13T19:55:55.550Z,55.43
2023-03-13T19:58:41.023Z,55.53
2023-03-13T20:01:17.326Z,54.42
2023-03-13T20:03:57.128Z,55.46
2023-03-13T20:06:41.083Z,55.99
2023-03-13T20:09:24.616Z,57.80
2023-03-13T20:12:16.651Z,57.95
2023-03-13T20:14:55.615Z,58.57
2023-03-13T20:17:27.137Z,58.83
2023-03-13T20:20:02.571Z,58.16
2023-03-13T20:22:33.297Z,57.46
2023-03-13T20:25:04.916Z,59.05
2023-03-13T20:27:35.691Z,58.17
2023-03-13T20:30:15.870Z,57.41
2023-03-13T20:32:59.324Z,57.83
2023-03-13T20:35:43.144Z,58.31
2023-03-13T20:38:24.623Z,56.32
2023-03-13T20:43:54.952Z,55.81
2023-03-13T20:46:25.897Z,55.31
2023-03-13T20:49:02.289Z,54.81
2023-03-13T20:51:34.303Z,54.44
2023-03-13T20:54:18.611Z,54.73
2023-03-13T20:56:52.246Z,55.22
2023-03-13T20:59:31.327Z,54.92
2023-03-13T21:02:13.157Z,55.27
2023-03-13T21:04:45.604Z,55.07
2023-03-13T21:07:12.993Z,55.68
2023-03-13T21:09:50.962Z,55.16
2023-03-13T21:15:16.656Z,56.16
2023-03-13T21:17:49.989Z,56.27
2023-03-13T21:20:19.745Z,56.20
2023-03-13T21:22:54.953Z,55.85
2023-03-13T21:25:28.775Z,55.52
2023-03-13T21:27:59.470Z,54.57
2023-03-13T21:30:27.459Z,54.29
2023-03-13T21:33:11.710Z,54.20
2023-03-13T21:35:41.751Z,54.42
2023-03-13T21:38:13.444Z,54.20
2023-03-13T21:40:43.706Z,54.26
2023-03-13T21:43:20.267Z,52.52
2023-03-13T21:45:52.162Z,44.55
2023-03-13T21:51:18.224Z,40.79
2023-03-13T21:53:45.693Z,38.62
2023-03-13T21:56:23.569Z,36.85
2023-03-13T21:58:54.319Z,36.33
2023-03-13T22:01:28.796Z,34.21
2023-03-13T22:04:09.524Z,33.69
2023-03-13T22:07:00.395Z,32.57
2023-03-13T22:09:40.625Z,31.90
2023-03-13T22:12:18.765Z,31.57
2023-03-13T22:14:56.119Z,31.60
2023-03-13T22:17:55.238Z,29.62
2023-03-13T22:20:39.710Z,29.75
2023-03-13T22:23:13.221Z,29.58
2023-03-13T22:26:02.843Z,28.38
2023-03-13T22:28:45.706Z,28.78
2023-03-13T22:31:27.303Z,27.61
2023-03-13T22:34:03.531Z,27.80
2023-03-13T22:36:46.867Z,27.29
2023-03-13T22:39:30.196Z,26.96
2023-03-13T22:42:03.750Z,26.90
2023-03-13T22:44:44.612Z,27.02
2023-03-13T22:47:26.162Z,26.98
2023-03-13T22:50:09.579Z,26.76
2023-03-13T22:52:47.962Z,26.93
2023-03-13T22:55:27.481Z,26.96
2023-03-13T22:58:14.242Z,26.93
2023-03-13T23:00:54.973Z,26.75
2023-03-13T23:03:35.286Z,26.87
2023-03-13T23:06:26.272Z,26.76
2023-03-13T23:09:14.884Z,26.47
2023-03-13T23:12:07.075Z,26.08
2023-03-13T23:14:48.933Z,25.77
2023-03-13T23:17:32.250Z,25.31
2023-03-13T23:20:16.684Z,25.10
2023-03-13T23:22:59.058Z,25.05
2023-03-13T23:25:41.292Z,24.53
2023-03-13T23:28:23.388Z,24.06
2023-03-13T23:31:04.460Z,24.08
2023-03-13T23:33:49.908Z,23.75
2023-03-13T23:36:36.358Z,23.80
2023-03-13T23:39:44.046Z,23.35
2023-03-13T23:42:35.472Z,23.30
2023-03-13T23:45:18.780Z,23.81
2023-03-13T23:48:05.099Z,24.31
2023-03-13T23:50:42.956Z,24.44
2023-03-13T23:53:21.085Z,25.18
2023-03-13T23:56:00.958Z,25.41
2023-03-13T23:58:33.675Z,26.37
